Time;durP1;ratioP1;P1;durP2;ratioP2;P2;SDS_P1;SDS_P2;PMS_P1;PMS_P2;Temp;Humidity;BMP_temperature;BMP_pressure;BME280_temperature;BME280_humidity;BME280_pressure;Samples;Min_cycle;Max_cycle;Signal;HPM_P1;HPM_P2
2022/06/20 00:04:21;;;;;;;7.30;2.80;;;26.60;53.70;;;;;;220049;1271;23067;-51
2022/06/20 00:09:25;;;;;;;5.10;2.60;;;26.60;53.80;;;;;;220095;1271;22586;-49
2022/06/20 00:14:27;;;;;;;9.50;3.00;;;26.60;53.80;;;;;;220124;1272;24333;-51
2022/06/20 00:19:30;;;;;;;6.10;2.90;;;26.60;53.80;;;;;;220066;1271;22543;-49
2022/06/20 00:24:32;;;;;;;4.10;2.50;;;26.60;53.80;;;;;;219925;1271;22553;-50
2022/06/20 00:29:38;;;;;;;4.00;2.30;;;26.60;53.80;;;;;;219910;1271;25640;-48
2022/06/20 00:34:41;;;;;;;3.50;2.50;;;26.60;54.20;;;;;;220138;1271;26510;-48
2022/06/20 00:39:43;;;;;;;6.80;2.90;;;26.50;54.20;;;;;;220094;1271;22557;-49
2022/06/20 00:44:49;;;;;;;15.80;3.70;;;26.50;54.60;;;;;;219956;1271;22580;-49
2022/06/20 00:50:29;;;;;;;8.50;2.90;;;26.60;54.00;;;;;;220089;1271;22606;-50
2022/06/20 00:55:37;;;;;;;3.90;2.70;;;26.50;53.90;;;;;;219739;1272;25524;-49
2022/06/20 01:00:41;;;;;;;6.90;3.00;;;26.60;54.00;;;;;;220276;1271;25383;-50
2022/06/20 01:05:46;;;;;;;5.70;2.60;;;26.60;54.10;;;;;;220000;1271;25647;-49
2022/06/20 01:10:56;;;;;;;5.40;2.50;;;26.50;54.40;;;;;;219901;1271;22583;-49
2022/06/20 01:16:13;;;;;;;5.10;2.70;;;26.50;54.10;;;;;;219941;1271;24423;-48
2022/06/20 01:21:23;;;;;;;6.10;2.60;;;26.50;54.20;;;;;;215726;1271;5951260;-51
2022/06/20 01:26:50;;;;;;;5.40;2.70;;;26.50;54.60;;;;;;220019;1271;25396;-50
2022/06/20 01:31:55;;;;;;;3.30;2.30;;;26.50;54.30;;;;;;220124;1272;22572;-48
2022/06/20 01:37:23;;;;;;;5.00;2.60;;;26.50;54.10;;;;;;220084;1271;22701;-48
2022/06/20 01:42:29;;;;;;;3.70;2.30;;;26.50;54.10;;;;;;219894;1271;22672;-50
2022/06/20 01:47:32;;;;;;;2.80;2.20;;;26.50;54.20;;;;;;219958;1271;26498;-50
2022/06/20 01:52:40;;;;;;;4.00;2.40;;;26.40;54.20;;;;;;219911;1271;22806;-50
2022/06/20 01:57:46;;;;;;;3.60;2.60;;;26.50;54.20;;;;;;220046;1274;23108;-49
2022/06/20 02:02:52;;;;;;;3.80;2.20;;;26.40;54.50;;;;;;219954;1272;24841;-52
2022/06/20 02:08:00;;;;;;;5.90;2.60;;;26.50;54.30;;;;;;220125;1272;25503;-48
2022/06/20 02:13:03;;;;;;;4.10;2.30;;;26.50;54.70;;;;;;219952;1271;22789;-51
2022/06/20 02:18:07;;;;;;;3.90;2.40;;;26.50;54.40;;;;;;220062;1271;24335;-51
2022/06/20 02:23:11;;;;;;;3.60;2.30;;;26.40;54.50;;;;;;220059;1274;22999;-52
2022/06/20 02:28:20;;;;;;;8.60;3.00;;;26.40;54.60;;;;;;219854;1271;24383;-47
2022/06/20 02:33:27;;;;;;;3.90;2.50;;;26.50;54.60;;;;;;220082;1270;23189;-52
2022/06/20 02:38:33;;;;;;;10.50;3.20;;;26.40;54.50;;;;;;219988;1272;24270;-49
2022/06/20 02:43:40;;;;;;;11.20;3.10;;;26.40;54.60;;;;;;220102;1271;24196;-49
2022/06/20 02:48:47;;;;;;;7.70;3.00;;;26.40;54.70;;;;;;220051;1271;23506;-51
2022/06/20 02:53:55;;;;;;;6.90;3.00;;;26.40;55.00;;;;;;220196;1274;25518;-50
2022/06/20 02:59:05;;;;;;;8.10;3.00;;;26.40;54.60;;;;;;219970;1272;23270;-50
2022/06/20 03:04:16;;;;;;;6.00;2.90;;;26.40;54.80;;;;;;219872;1271;22547;-50
2022/06/20 03:09:32;;;;;;;7.10;3.40;;;26.40;54.70;;;;;;220112;1270;24286;-50
2022/06/20 03:14:41;;;;;;;4.70;2.40;;;26.40;54.80;;;;;;219985;1271;22634;-52
2022/06/20 03:19:48;;;;;;;6.00;2.90;;;26.40;54.90;;;;;;219997;1271;22544;-50
2022/06/20 03:24:53;;;;;;;7.80;2.90;;;26.40;54.90;;;;;;219856;1271;22613;-47
2022/06/20 03:30:01;;;;;;;5.20;3.10;;;26.40;55.00;;;;;;219858;1271;24221;-55
2022/06/20 03:35:07;;;;;;;6.40;3.10;;;26.40;54.90;;;;;;219956;1271;22586;-53
2022/06/20 03:40:10;;;;;;;10.70;3.30;;;26.40;55.00;;;;;;220077;1271;25947;-51
2022/06/20 03:45:14;;;;;;;10.10;3.40;;;26.40;55.30;;;;;;219873;1271;25549;-51
2022/06/20 03:50:29;;;;;;;5.90;3.20;;;26.40;55.30;;;;;;220133;1271;23917;-48
2022/06/20 03:55:38;;;;;;;7.50;3.10;;;26.40;55.30;;;;;;219998;1271;25531;-50
2022/06/20 04:00:49;;;;;;;6.70;2.90;;;26.40;55.00;;;;;;220113;1271;25324;-50
2022/06/20 04:06:12;;;;;;;4.60;3.10;;;26.40;55.00;;;;;;219996;1271;22631;-49
2022/06/20 04:11:23;;;;;;;5.00;3.10;;;26.40;55.00;;;;;;219932;1270;22958;-48
2022/06/20 04:16:44;;;;;;;4.60;3.10;;;26.40;54.90;;;;;;219879;1270;23171;-52
2022/06/20 04:22:03;;;;;;;4.70;2.80;;;26.40;54.90;;;;;;220032;1270;24296;-48
2022/06/20 04:27:25;;;;;;;5.80;3.00;;;26.40;54.90;;;;;;220202;1274;22709;-52
2022/06/20 04:32:36;;;;;;;6.30;2.90;;;26.40;55.00;;;;;;219986;1270;24833;-50
2022/06/20 04:37:44;;;;;;;3.70;2.70;;;26.40;54.90;;;;;;220038;1270;22569;-52
2022/06/20 04:43:02;;;;;;;4.30;2.70;;;26.40;54.70;;;;;;219944;1270;25487;-49
2022/06/20 04:48:11;;;;;;;8.50;3.20;;;26.40;55.10;;;;;;219878;1270;25440;-49
2022/06/20 04:53:20;;;;;;;3.10;2.70;;;26.40;55.20;;;;;;219883;1270;24294;-49
2022/06/20 04:58:28;;;;;;;4.20;2.70;;;26.40;54.90;;;;;;220228;1270;22727;-48
2022/06/20 05:03:46;;;;;;;5.20;2.90;;;26.40;54.80;;;;;;219858;1270;25421;-50
2022/06/20 05:08:52;;;;;;;4.10;3.00;;;26.40;54.80;;;;;;220339;1270;22785;-49
2022/06/20 05:14:10;;;;;;;4.40;2.50;;;26.40;54.90;;;;;;220055;1270;23186;-54
2022/06/20 05:19:18;;;;;;;4.00;2.60;;;26.40;54.90;;;;;;219989;1270;23195;-48
2022/06/20 05:24:24;;;;;;;6.90;2.90;;;26.40;54.90;;;;;;219824;1270;22548;-49
2022/06/20 05:29:33;;;;;;;3.40;2.70;;;26.40;54.80;;;;;;219907;1270;23065;-50
2022/06/20 05:34:48;;;;;;;5.70;2.60;;;26.40;54.70;;;;;;219806;1270;22547;-50
2022/06/20 05:39:57;;;;;;;5.30;2.60;;;26.40;54.50;;;;;;220136;1270;22566;-48
2022/06/20 05:44:59;;;;;;;3.40;2.70;;;26.40;54.50;;;;;;219897;1270;22544;-50
2022/06/20 05:50:11;;;;;;;8.30;3.10;;;26.50;54.60;;;;;;219836;1271;22820;-49
2022/06/20 05:55:21;;;;;;;3.50;2.80;;;26.50;54.50;;;;;;219933;1270;25375;-49
2022/06/20 06:00:29;;;;;;;3.60;2.60;;;26.50;54.50;;;;;;220051;1270;24270;-52
2022/06/20 06:05:52;;;;;;;5.00;2.80;;;26.50;54.50;;;;;;219999;1270;22746;-48
2022/06/20 06:11:26;;;;;;;3.70;2.80;;;26.50;54.50;;;;;;220036;1270;25339;-49
2022/06/20 06:16:46;;;;;;;5.10;2.70;;;26.50;54.80;;;;;;219940;1271;22578;-49
2022/06/20 06:21:51;;;;;;;5.10;2.30;;;26.50;54.30;;;;;;220034;1270;24301;-49
2022/06/20 06:26:58;;;;;;;3.60;2.60;;;26.50;54.40;;;;;;219942;1270;22603;-48
2022/06/20 06:32:09;;;;;;;5.70;2.50;;;26.50;54.30;;;;;;219851;1270;25328;-50
2022/06/20 06:37:20;;;;;;;3.50;2.50;;;26.50;54.30;;;;;;219853;1270;24243;-50
2022/06/20 06:42:23;;;;;;;3.60;2.40;;;26.60;54.30;;;;;;219948;1271;22560;-48
2022/06/20 06:47:40;;;;;;;3.00;2.50;;;26.50;54.70;;;;;;219809;1271;25509;-48
2022/06/20 06:52:50;;;;;;;3.50;2.70;;;26.60;54.40;;;;;;219649;1271;22715;-50
2022/06/20 06:58:30;;;;;;;5.00;2.70;;;26.60;54.50;;;;;;219720;1271;25530;-50
2022/06/20 07:03:39;;;;;;;4.00;2.50;;;26.60;54.30;;;;;;219712;1271;22843;-48
2022/06/20 07:08:50;;;;;;;4.30;2.90;;;26.60;54.30;;;;;;219823;1270;22658;-47
2022/06/20 07:13:54;;;;;;;6.30;2.50;;;26.60;54.30;;;;;;220070;1270;25386;-47
2022/06/20 07:18:59;;;;;;;4.10;2.40;;;26.60;54.30;;;;;;220298;1270;22716;-50
2022/06/20 07:24:07;;;;;;;3.40;2.80;;;26.70;54.40;;;;;;220074;1270;24794;-48
2022/06/20 07:29:22;;;;;;;5.00;2.60;;;26.70;54.30;;;;;;220030;1270;25288;-50
2022/06/20 07:34:32;;;;;;;5.60;2.70;;;26.70;54.30;;;;;;219999;1270;22585;-48
2022/06/20 07:39:38;;;;;;;;;;;26.70;54.30;;;;;;220099;1270;25271;-48
2022/06/20 07:44:54;;;;;;;5.70;3.20;;;26.70;54.30;;;;;;219935;1270;22560;-49
2022/06/20 07:50:02;;;;;;;3.80;2.80;;;26.70;54.30;;;;;;219933;1270;22570;-51
2022/06/20 07:55:11;;;;;;;5.30;3.10;;;26.80;54.30;;;;;;220041;1270;25269;-50
2022/06/20 08:00:22;;;;;;;5.60;2.80;;;26.80;54.30;;;;;;220023;1270;23460;-49
2022/06/20 08:05:34;;;;;;;3.90;2.60;;;26.80;54.30;;;;;;219889;1271;24282;-48
2022/06/20 08:10:43;;;;;;;4.40;2.80;;;26.80;54.30;;;;;;219864;1271;24268;-51
2022/06/20 08:16:10;;;;;;;5.30;3.20;;;26.80;54.40;;;;;;220247;1271;22696;-51
2022/06/20 08:21:20;;;;;;;5.30;3.00;;;26.70;54.50;;;;;;220078;1271;22578;-48
2022/06/20 08:26:31;;;;;;;3.80;2.60;;;26.70;55.20;;;;;;219967;1271;24310;-49
2022/06/20 08:31:38;;;;;;;4.10;3.00;;;26.70;55.00;;;;;;219862;1271;24396;-49
2022/06/20 08:36:59;;;;;;;6.80;3.30;;;26.70;55.00;;;;;;219915;1271;23395;-49
2022/06/20 08:42:36;;;;;;;5.80;3.10;;;26.70;55.30;;;;;;219988;1270;24246;-49
2022/06/20 08:47:45;;;;;;;4.60;2.90;;;26.70;55.30;;;;;;220131;1270;22804;-49
2022/06/20 08:53:24;;;;;;;6.30;3.50;;;26.70;55.30;;;;;;219890;1271;25431;-49
2022/06/20 08:58:50;;;;;;;8.20;3.10;;;26.60;55.10;;;;;;219906;1271;26627;-49
2022/06/20 09:04:34;;;;;;;6.70;3.10;;;26.70;55.30;;;;;;219786;1271;25520;-51
2022/06/20 09:10:15;;;;;;;11.60;3.80;;;26.60;54.90;;;;;;219846;1271;22550;-48
2022/06/20 09:15:37;;;;;;;8.70;3.40;;;26.60;54.90;;;;;;219122;1276;22574;-52
2022/06/20 09:21:13;;;;;;;3.90;3.30;;;26.60;54.80;;;;;;219802;1270;22586;-50
2022/06/20 09:26:36;;;;;;;5.20;3.40;;;26.60;54.90;;;;;;219826;1271;22675;-48
2022/06/20 09:31:42;;;;;;;16.60;4.10;;;26.60;55.40;;;;;;219669;1272;23185;-50
2022/06/20 09:37:03;;;;;;;7.10;3.30;;;26.60;54.90;;;;;;219881;1270;24420;-49
2022/06/20 09:42:20;;;;;;;4.20;3.10;;;26.70;55.30;;;;;;220014;1271;22550;-55
2022/06/20 09:47:35;;;;;;;5.40;3.30;;;26.60;55.10;;;;;;220039;1271;24287;-49
2022/06/20 09:52:43;;;;;;;6.20;3.70;;;26.70;55.10;;;;;;219830;1272;22615;-52
2022/06/20 09:58:00;;;;;;;12.70;3.50;;;26.70;55.20;;;;;;219650;1271;24238;-51
2022/06/20 10:03:17;;;;;;;8.90;3.50;;;26.70;55.30;;;;;;219631;1271;25520;-50
2022/06/20 10:08:26;;;;;;;6.00;3.60;;;26.60;55.60;;;;;;219987;1270;22560;-50
2022/06/20 10:13:33;;;;;;;8.10;3.60;;;26.60;55.30;;;;;;219939;1271;22568;-53
2022/06/20 10:18:42;;;;;;;5.00;2.90;;;26.70;55.50;;;;;;219838;1271;22761;-51
2022/06/20 10:24:16;;;;;;;5.00;3.20;;;26.70;55.40;;;;;;219966;1270;23931;-51
2022/06/20 10:29:37;;;;;;;4.20;3.10;;;26.60;55.50;;;;;;219912;1271;22572;-50
2022/06/20 10:34:42;;;;;;;4.50;3.30;;;26.60;55.40;;;;;;219924;1271;22579;-52
2022/06/20 10:39:59;;;;;;;4.70;3.00;;;26.60;55.70;;;;;;219957;1270;22557;-51
2022/06/20 10:45:39;;;;;;;6.00;3.60;;;26.50;55.60;;;;;;220106;1270;24422;-52
2022/06/20 10:50:58;;;;;;;3.70;2.90;;;26.50;55.70;;;;;;219959;1270;22825;-49
2022/06/20 10:56:11;;;;;;;4.70;3.30;;;26.50;55.60;;;;;;219937;1270;22663;-49
2022/06/20 11:01:24;;;;;;;8.10;3.80;;;26.60;55.70;;;;;;219982;1270;22712;-51
2022/06/20 11:07:01;;;;;;;4.40;3.00;;;26.50;55.70;;;;;;220114;1270;22550;-52
2022/06/20 11:12:45;;;;;;;4.80;3.20;;;26.50;55.80;;;;;;220174;1270;22700;-49
2022/06/20 11:18:10;;;;;;;5.70;3.70;;;26.60;55.90;;;;;;219964;1270;22566;-50
2022/06/20 11:23:53;;;;;;;5.00;3.60;;;26.50;55.90;;;;;;220120;1270;22722;-50
2022/06/20 11:29:28;;;;;;;8.90;3.80;;;26.50;56.10;;;;;;220054;1270;24649;-50
2022/06/20 11:35:02;;;;;;;7.60;3.90;;;26.50;56.30;;;;;;220056;1270;25480;-49
2022/06/20 11:40:24;;;;;;;4.70;3.60;;;26.50;56.30;;;;;;219751;1271;25506;-53
2022/06/20 11:45:48;;;;;;;4.10;3.10;;;26.50;55.80;;;;;;220283;1270;25865;-50
2022/06/20 11:51:30;;;;;;;5.60;3.40;;;26.60;55.90;;;;;;219881;1270;22556;-51
2022/06/20 11:57:23;;;;;;;4.40;3.10;;;26.60;55.80;;;;;;219979;1270;22813;-55
2022/06/20 12:02:54;;;;;;;4.60;3.20;;;26.60;55.70;;;;;;220076;1270;22544;-49
2022/06/20 12:08:33;;;;;;;4.40;3.10;;;26.60;55.40;;;;;;220291;1272;22831;-52
2022/06/20 12:14:14;;;;;;;3.40;3.00;;;26.60;55.60;;;;;;220140;1270;24295;-49
2022/06/20 12:25:04;;;;;;;6.80;3.40;;;26.60;55.60;;;;;;219975;1270;22561;-50
2022/06/20 12:30:14;;;;;;;4.90;3.20;;;26.60;55.70;;;;;;219959;1271;25282;-51
2022/06/20 12:35:48;;;;;;;4.80;2.90;;;26.60;55.30;;;;;;219714;1271;25437;-49
2022/06/20 12:41:02;;;;;;;4.90;3.30;;;26.60;56.10;;;;;;220040;1272;25341;-50
2022/06/20 12:46:32;;;;;;;6.10;3.20;;;26.60;55.60;;;;;;219948;1270;22576;-51
2022/06/20 12:51:47;;;;;;;7.10;3.70;;;26.60;55.60;;;;;;220132;1270;25251;-49
2022/06/20 12:57:28;;;;;;;5.90;3.50;;;26.60;55.50;;;;;;219936;1271;22592;-54
2022/06/20 13:02:52;;;;;;;4.60;3.40;;;26.60;55.70;;;;;;219762;1273;22684;-54
2022/06/20 13:08:08;;;;;;;5.20;2.90;;;26.60;55.40;;;;;;219913;1271;24195;-51
2022/06/20 13:13:38;;;;;;;4.40;3.20;;;26.70;55.50;;;;;;220043;1270;22714;-48
2022/06/20 13:19:01;;;;;;;5.20;3.20;;;26.70;55.40;;;;;;219461;1270;570035;-54
2022/06/20 13:24:49;;;;;;;5.70;3.50;;;26.70;55.60;;;;;;220162;1273;24288;-51
2022/06/20 13:29:59;;;;;;;8.30;3.90;;;26.70;55.40;;;;;;219815;1273;25317;-49
2022/06/20 13:35:04;;;;;;;4.00;3.40;;;26.70;55.10;;;;;;219982;1272;24241;-52
2022/06/20 13:40:09;;;;;;;3.70;3.10;;;26.70;55.50;;;;;;220111;1270;22639;-48
2022/06/20 13:45:18;;;;;;;4.10;2.60;;;26.70;55.40;;;;;;219871;1270;25258;-51
2022/06/20 13:50:42;;;;;;;7.20;3.60;;;26.70;55.40;;;;;;219981;1270;24120;-48
2022/06/20 13:56:14;;;;;;;5.80;3.30;;;26.70;55.80;;;;;;219991;1270;24815;-53
2022/06/20 14:01:21;;;;;;;6.10;3.40;;;26.70;55.40;;;;;;219968;1270;22541;-51
2022/06/20 14:06:27;;;;;;;3.80;2.80;;;26.70;55.50;;;;;;220170;1270;25375;-50
2022/06/20 14:11:47;;;;;;;4.90;3.10;;;26.70;56.00;;;;;;219987;1271;22553;-50
2022/06/20 14:17:18;;;;;;;5.50;3.10;;;26.70;55.40;;;;;;220037;1270;22562;-54
2022/06/20 14:22:31;;;;;;;7.40;3.20;;;26.70;55.40;;;;;;219982;1270;22806;-50
2022/06/20 14:27:35;;;;;;;4.30;3.00;;;26.70;55.40;;;;;;220153;1270;22700;-50
2022/06/20 14:33:22;;;;;;;4.30;3.30;;;26.70;55.50;;;;;;220197;1270;24354;-48
2022/06/20 14:38:37;;;;;;;3.70;2.90;;;26.80;55.60;;;;;;219419;1275;22545;-51
2022/06/20 14:43:46;;;;;;;4.40;3.10;;;26.70;55.60;;;;;;219441;1273;25345;-50
2022/06/20 14:48:57;;;;;;;6.00;3.40;;;26.70;55.60;;;;;;219858;1273;24263;-52
2022/06/20 14:54:31;;;;;;;3.80;3.00;;;26.70;55.60;;;;;;219340;1274;24272;-53
2022/06/20 14:59:58;;;;;;;5.50;3.40;;;26.70;55.50;;;;;;219539;1273;24331;-50
2022/06/20 15:05:07;;;;;;;4.90;3.30;;;26.60;55.50;;;;;;219369;1273;25429;-49
2022/06/20 15:10:31;;;;;;;5.00;3.30;;;26.60;55.50;;;;;;219675;1273;24930;-53
2022/06/20 15:15:44;;;;;;;5.10;3.60;;;26.60;55.70;;;;;;219521;1273;25264;-53
2022/06/20 15:21:11;;;;;;;4.00;3.40;;;26.60;55.80;;;;;;219496;1273;22623;-50
2022/06/20 15:26:30;;;;;;;8.90;3.70;;;26.60;56.00;;;;;;219658;1273;22537;-50
2022/06/20 15:31:36;;;;;;;8.70;3.70;;;26.60;56.00;;;;;;220099;1271;22615;-49
2022/06/20 15:36:43;;;;;;;12.70;3.80;;;26.50;56.10;;;;;;219965;1271;25520;-48
2022/06/20 15:42:25;;;;;;;12.40;4.20;;;26.60;56.40;;;;;;219753;1271;24448;-53
2022/06/20 15:47:48;;;;;;;4.80;3.00;;;26.50;56.10;;;;;;219762;1273;22956;-53
2022/06/20 15:53:30;;;;;;;5.80;3.50;;;26.60;56.30;;;;;;219934;1271;24155;-50
2022/06/20 15:59:11;;;;;;;6.20;3.20;;;26.50;56.20;;;;;;219884;1270;26629;-51
2022/06/20 16:05:05;;;;;;;4.30;3.20;;;26.50;55.70;;;;;;219467;1273;22956;-51
2022/06/20 16:10:52;;;;;;;4.00;3.00;;;26.50;56.10;;;;;;219941;1274;24294;-51
2022/06/20 16:16:31;;;;;;;12.60;3.70;;;26.50;56.10;;;;;;219751;1271;22608;-54
2022/06/20 16:22:02;;;;;;;3.40;2.90;;;26.40;56.00;;;;;;219769;1273;24239;-50
2022/06/20 16:27:39;;;;;;;3.70;2.80;;;26.40;55.90;;;;;;219804;1270;24256;-51
2022/06/20 16:33:26;;;;;;;5.00;2.90;;;26.40;56.20;;;;;;219768;1271;24235;-51
2022/06/20 16:38:39;;;;;;;2.90;2.50;;;26.40;55.80;;;;;;219715;1273;23243;-48
2022/06/20 16:44:29;;;;;;;3.10;2.40;;;26.40;55.80;;;;;;219547;1272;24234;-49
2022/06/20 16:50:19;;;;;;;3.40;2.70;;;26.40;55.70;;;;;;219820;1270;25263;-51
2022/06/20 16:55:54;;;;;;;4.30;2.80;;;26.40;55.70;;;;;;219911;1272;22713;-49
2022/06/20 17:01:33;;;;;;;6.50;2.80;;;26.40;55.80;;;;;;220168;1273;24330;-53
2022/06/20 17:06:53;;;;;;;6.00;3.20;;;26.40;55.80;;;;;;219921;1271;25510;-55
2022/06/20 17:13:04;;;;;;;3.10;2.70;;;26.30;55.70;;;;;;220053;1270;23950;-54
2022/06/20 17:18:28;;;;;;;5.30;2.70;;;26.30;56.00;;;;;;219403;1274;24358;-58
2022/06/20 17:23:58;;;;;;;7.80;3.00;;;26.30;55.60;;;;;;219842;1270;25522;-55
2022/06/20 17:29:37;;;;;;;11.50;3.50;;;26.40;55.70;;;;;;219820;1270;22542;-58
2022/06/20 17:35:15;;;;;;;5.90;2.90;;;26.30;55.60;;;;;;219867;1270;22531;-54
2022/06/20 17:41:24;;;;;;;3.00;2.50;;;26.30;55.50;;;;;;220086;1270;24203;-55
2022/06/20 17:47:43;;;;;;;18.30;4.10;;;26.30;55.10;;;;;;220154;1270;22812;-50
2022/06/20 17:53:54;;;;;;;6.80;2.70;;;26.30;55.40;;;;;;219991;1271;22544;-52
2022/06/20 17:59:39;;;;;;;3.80;2.30;;;26.30;55.40;;;;;;219642;1273;22545;-52
2022/06/20 18:05:25;;;;;;;4.60;2.30;;;26.30;55.40;;;;;;220286;1271;24549;-55
2022/06/20 18:11:16;;;;;;;3.00;2.40;;;26.30;55.50;;;;;;219970;1271;25725;-55
2022/06/20 18:16:59;;;;;;;5.00;2.90;;;26.30;55.50;;;;;;220073;1270;25401;-53
2022/06/20 18:22:43;;;;;;;3.50;2.30;;;26.20;55.80;;;;;;219591;1271;22564;-50
2022/06/20 18:27:58;;;;;;;6.40;2.90;;;26.30;55.60;;;;;;219277;1271;24295;-51
2022/06/20 18:33:43;;;;;;;7.40;2.60;;;26.20;55.40;;;;;;219896;1271;24540;-53
2022/06/20 18:39:18;;;;;;;5.50;2.70;;;26.30;55.50;;;;;;219695;1270;23957;-53
2022/06/20 18:44:47;;;;;;;3.40;2.40;;;26.20;55.70;;;;;;219682;1271;22566;-51
2022/06/20 18:50:21;;;;;;;3.70;2.40;;;26.20;55.40;;;;;;219750;1271;22550;-52
2022/06/20 18:55:44;;;;;;;3.80;2.10;;;26.20;55.40;;;;;;220080;1274;23941;-49
2022/06/20 19:01:10;;;;;;;3.60;2.30;;;26.20;55.80;;;;;;219988;1271;24268;-50
2022/06/20 19:06:23;;;;;;;2.60;2.20;;;26.20;55.90;;;;;;220019;1270;23858;-55
2022/06/20 19:12:12;;;;;;;13.70;3.10;;;26.20;55.50;;;;;;219698;1275;22643;-55
2022/06/20 19:17:45;;;;;;;2.90;2.30;;;26.20;55.60;;;;;;219786;1271;22737;-55
2022/06/20 19:23:26;;;;;;;8.60;3.10;;;26.10;55.70;;;;;;220163;1270;25229;-54
2022/06/20 19:28:38;;;;;;;5.60;2.50;;;26.20;55.60;;;;;;220134;1271;25398;-54
2022/06/20 19:34:40;;;;;;;14.40;3.30;;;26.10;55.80;;;;;;219906;1270;23270;-58
2022/06/20 19:40:00;;;;;;;4.30;2.40;;;26.10;55.50;;;;;;220116;1274;22672;-55
2022/06/20 19:45:41;;;;;;;3.00;2.30;;;26.10;55.50;;;;;;220092;1271;24235;-56
2022/06/20 19:50:54;;;;;;;3.50;2.30;;;26.10;55.40;;;;;;220173;1270;23040;-56
2022/06/20 19:56:05;;;;;;;4.10;2.40;;;26.10;55.50;;;;;;220235;1271;22697;-54
2022/06/20 20:01:30;;;;;;;5.90;2.40;;;26.10;55.50;;;;;;220130;1270;24192;-55
2022/06/20 20:07:15;;;;;;;9.40;2.80;;;26.00;55.40;;;;;;220083;1271;22735;-54
2022/06/20 20:12:30;;;;;;;11.40;3.10;;;26.00;55.40;;;;;;220176;1271;22546;-55
2022/06/20 20:18:17;;;;;;;3.20;2.10;;;26.00;55.50;;;;;;220143;1271;24238;-54
2022/06/20 20:23:24;;;;;;;8.30;2.70;;;26.00;55.50;;;;;;220196;1272;25492;-55
2022/06/20 20:28:47;;;;;;;8.10;2.80;;;26.00;56.20;;;;;;220127;1271;22712;-56
2022/06/20 20:34:31;;;;;;;5.50;2.60;;;26.00;55.50;;;;;;219907;1271;23186;-51
2022/06/20 20:39:39;;;;;;;4.90;2.30;;;26.00;55.50;;;;;;220148;1271;23077;-53
2022/06/20 20:45:11;;;;;;;6.00;2.40;;;25.90;55.50;;;;;;220223;1271;22704;-56
2022/06/20 20:50:27;;;;;;;5.20;2.40;;;26.00;55.50;;;;;;220175;1271;22979;-56
2022/06/20 20:55:34;;;;;;;8.60;2.40;;;25.90;55.50;;;;;;219962;1273;25233;-54
2022/06/20 21:00:37;;;;;;;14.20;3.10;;;25.90;55.50;;;;;;220045;1272;25287;-55
2022/06/20 21:05:39;;;;;;;4.00;1.90;;;25.90;55.50;;;;;;220066;1271;22725;-57
2022/06/20 21:10:46;;;;;;;3.00;2.00;;;25.90;55.50;;;;;;220118;1272;22875;-53
2022/06/20 21:16:22;;;;;;;5.90;2.20;;;25.90;55.50;;;;;;219914;1272;23195;-53
2022/06/20 21:21:35;;;;;;;6.20;2.30;;;25.80;55.50;;;;;;220036;1271;23399;-55
2022/06/20 21:27:05;;;;;;;8.30;2.60;;;25.90;55.50;;;;;;219948;1271;22576;-56
2022/06/20 21:32:30;;;;;;;6.30;2.10;;;25.80;55.50;;;;;;219914;1271;25507;-54
2022/06/20 21:38:01;;;;;;;2.70;2.00;;;25.80;55.50;;;;;;220005;1272;25355;-55
2022/06/20 21:43:21;;;;;;;3.00;2.10;;;25.80;55.80;;;;;;220005;1272;25354;-57
2022/06/20 21:48:28;;;;;;;4.50;2.10;;;25.80;55.10;;;;;;220161;1274;23961;-54
2022/06/20 21:53:53;;;;;;;5.50;2.10;;;25.80;55.80;;;;;;220004;1271;22749;-55
2022/06/20 21:59:11;;;;;;;3.80;1.90;;;25.80;55.50;;;;;;219910;1271;24336;-55
2022/06/20 22:04:58;;;;;;;3.30;1.90;;;25.80;55.50;;;;;;219908;1271;22704;-57
2022/06/20 22:10:30;;;;;;;3.00;2.10;;;25.70;55.50;;;;;;220121;1274;22580;-56
2022/06/20 22:15:35;;;;;;;6.30;2.20;;;25.70;55.50;;;;;;220131;1271;22541;-55
2022/06/20 22:20:44;;;;;;;2.80;1.80;;;25.70;55.50;;;;;;220123;1271;24350;-55
2022/06/20 22:25:54;;;;;;;5.30;2.20;;;25.70;55.80;;;;;;220008;1271;23943;-53
2022/06/20 22:31:00;;;;;;;10.60;2.60;;;25.70;55.80;;;;;;219880;1271;22595;-54
2022/06/20 22:36:10;;;;;;;5.90;2.50;;;25.70;55.50;;;;;;219755;1271;22644;-55
2022/06/20 22:41:32;;;;;;;2.10;1.80;;;25.70;55.60;;;;;;219694;1271;22565;-56
2022/06/20 22:46:55;;;;;;;2.70;1.80;;;25.70;55.50;;;;;;220015;1270;22690;-57
2022/06/20 22:52:26;;;;;;;6.30;2.20;;;25.60;55.50;;;;;;220037;1271;26667;-54
2022/06/20 22:57:53;;;;;;;1.90;1.50;;;25.60;55.50;;;;;;220056;1270;25934;-53
2022/06/20 23:02:59;;;;;;;6.90;2.30;;;25.60;55.80;;;;;;219612;1271;22584;-57
2022/06/20 23:08:03;;;;;;;3.50;1.90;;;25.60;55.50;;;;;;219805;1271;22541;-53
2022/06/20 23:13:14;;;;;;;2.60;1.80;;;25.60;55.50;;;;;;219745;1271;24251;-55
2022/06/20 23:23:44;;;;;;;11.30;2.80;;;25.60;55.50;;;;;;220079;1271;26610;-54
2022/06/20 23:28:46;;;;;;;3.60;2.00;;;25.50;55.10;;;;;;219949;1271;24247;-54
2022/06/20 23:33:52;;;;;;;4.20;2.00;;;25.50;55.50;;;;;;219936;1271;22576;-59
2022/06/20 23:38:56;;;;;;;4.00;1.90;;;25.50;55.50;;;;;;220024;1272;24255;-56
2022/06/20 23:43:59;;;;;;;5.20;2.10;;;25.50;55.50;;;;;;219783;1271;24194;-55
2022/06/20 23:49:01;;;;;;;5.40;2.40;;;25.50;55.80;;;;;;219825;1271;24682;-57
2022/06/20 23:54:03;;;;;;;4.70;2.10;;;25.50;55.50;;;;;;219949;1270;25426;-54
2022/06/20 23:59:07;;;;;;;2.90;2.00;;;25.40;55.90;;;;;;220047;1271;22570;-58
